Time;durP1;ratioP1;P1;durP2;ratioP2;P2;SDS_P1;SDS_P2;PMS_P1;PMS_P2;Temp;Humidity;BMP_temperature;BMP_pressure;BME280_temperature;BME280_humidity;BME280_pressure;Samples;Min_cycle;Max_cycle;Signal;HPM_P1;HPM_P2
2023/07/29 00:05:57;;;;;;;8.10;6.70;;;;;;;15.32;100.00;98771.15;435208;1253;139158;-68
2023/07/29 00:16:06;;;;;;;6.20;5.30;;;;;;;15.41;100.00;98772.39;434879;1253;140738;-68
2023/07/29 00:26:12;;;;;;;5.70;5.30;;;;;;;15.45;100.00;98778.72;435429;1255;141088;-68
2023/07/29 00:36:18;;;;;;;7.80;6.70;;;;;;;15.53;100.00;98776.18;435792;1254;139381;-68
2023/07/29 00:46:25;;;;;;;6.80;5.10;;;;;;;15.61;100.00;98776.33;435372;1256;139986;-67
2023/07/29 00:56:31;;;;;;;6.10;5.50;;;;;;;15.60;100.00;98769.73;435197;1256;139487;-69
2023/07/29 01:06:51;;;;;;;7.10;5.80;;;;;;;15.50;100.00;98783.92;435377;1254;139129;-68
2023/07/29 01:17:01;;;;;;;6.80;5.50;;;;;;;15.39;100.00;98785.33;435623;1253;139171;-68
2023/07/29 01:27:08;;;;;;;6.10;5.20;;;;;;;15.33;100.00;98783.65;434764;1256;139677;-68
2023/07/29 01:37:20;;;;;;;5.30;4.50;;;;;;;15.30;100.00;98794.61;435026;1253;139295;-69
2023/07/29 01:47:27;;;;;;;5.10;4.60;;;;;;;15.16;100.00;98807.98;435408;1257;139150;-68
2023/07/29 01:57:33;;;;;;;6.80;6.20;;;;;;;15.00;100.00;98819.30;434914;1254;141476;-68
2023/07/29 02:08:03;;;;;;;6.10;5.50;;;;;;;14.88;100.00;98821.36;436878;1252;139587;-69
2023/07/29 02:18:24;;;;;;;7.10;6.40;;;;;;;14.75;100.00;98828.95;437442;1256;139579;-69
2023/07/29 02:28:29;;;;;;;7.50;6.80;;;;;;;14.70;100.00;98834.10;436673;1253;139133;-69
2023/07/29 02:38:35;;;;;;;8.20;6.40;;;;;;;14.55;100.00;98838.59;435697;1253;140971;-69
2023/07/29 02:48:41;;;;;;;7.50;6.90;;;;;;;14.50;100.00;98844.35;434946;1256;139126;-69
2023/07/29 02:58:47;;;;;;;9.20;6.70;;;;;;;14.59;100.00;98842.97;434832;1257;140970;-68
2023/07/29 03:08:53;;;;;;;12.40;9.10;;;;;;;14.70;100.00;98849.44;435127;1254;141710;-69
2023/07/29 03:19:00;;;;;;;14.70;9.90;;;;;;;14.86;100.00;98857.08;435386;1256;139500;-69
2023/07/29 03:29:06;;;;;;;15.40;12.30;;;;;;;14.99;100.00;98863.48;435925;1252;139943;-69
2023/07/29 03:39:11;;;;;;;20.80;12.20;;;;;;;15.18;100.00;98860.80;435381;1253;140463;-68
2023/07/29 03:49:17;;;;;;;13.40;11.70;;;;;;;15.39;100.00;98872.59;434793;1256;141664;-69
2023/07/29 03:59:23;;;;;;;19.00;11.40;;;;;;;15.74;100.00;98878.63;434846;1253;141293;-69
2023/07/29 04:09:29;;;;;;;20.90;11.70;;;;;;;15.97;100.00;98878.50;434905;1253;140770;-69
2023/07/29 04:19:35;;;;;;;12.50;10.30;;;;;;;16.16;100.00;98880.79;435131;1253;139653;-69
2023/07/29 04:29:40;;;;;;;11.80;10.60;;;;;;;16.36;100.00;98879.36;434757;1254;140231;-68
2023/07/29 04:39:46;;;;;;;11.20;9.70;;;;;;;16.74;100.00;98880.52;434610;1254;140469;-68
2023/07/29 04:49:52;;;;;;;14.10;10.80;;;;;;;17.04;100.00;98886.33;436295;1256;140361;-68
2023/07/29 04:59:58;;;;;;;19.40;10.60;;;;;;;17.38;100.00;98889.09;435064;1253;139579;-68
2023/07/29 05:10:04;;;;;;;13.30;12.00;;;;;;;17.81;100.00;98899.66;435042;1254;141783;-69
2023/07/29 05:20:12;;;;;;;13.90;11.00;;;;;;;18.25;100.00;98896.65;434910;1253;139952;-68
2023/07/29 05:30:18;;;;;;;17.30;13.40;;;;;;;18.59;99.43;98899.77;435565;1253;139648;-68
2023/07/29 05:40:24;;;;;;;13.20;11.90;;;;;;;18.92;98.53;98896.56;435009;1253;139468;-69
2023/07/29 05:50:30;;;;;;;20.10;11.00;;;;;;;19.41;96.99;98901.83;435236;1255;140101;-68
2023/07/29 06:00:35;;;;;;;15.80;11.80;;;;;;;19.66;95.10;98901.71;435722;1253;139369;-68
2023/07/29 06:10:41;;;;;;;11.80;10.70;;;;;;;20.08;93.93;98906.29;435283;1253;140373;-68
2023/07/29 06:20:47;;;;;;;13.40;12.30;;;;;;;20.32;92.45;98920.14;435383;1256;139513;-68
2023/07/29 06:30:53;;;;;;;11.30;10.40;;;;;;;21.24;91.57;98926.20;435223;1256;140215;-69
2023/07/29 06:40:59;;;;;;;8.70;8.00;;;;;;;23.51;86.81;98936.26;434981;1254;139802;-68
2023/07/29 06:51:05;;;;;;;7.10;6.30;;;;;;;27.56;83.22;98935.83;434921;1253;140511;-70
2023/07/29 07:01:11;;;;;;;5.50;5.20;;;;;;;37.73;67.74;98919.82;434830;1254;141921;-69
2023/07/29 07:11:17;;;;;;;4.40;3.60;;;;;;;44.81;51.74;98910.19;435698;1254;138825;-69
2023/07/29 07:21:23;;;;;;;3.50;3.20;;;;;;;49.38;38.74;98905.30;435069;1254;138944;-68
2023/07/29 07:31:29;;;;;;;3.50;3.20;;;;;;;49.41;32.10;98906.89;435086;1256;139597;-69
2023/07/29 07:41:34;;;;;;;2.90;2.30;;;;;;;46.81;30.72;98904.65;435170;1253;138423;-68
2023/07/29 07:51:40;;;;;;;4.00;2.10;;;;;;;46.14;29.17;98898.77;434732;1256;138519;-68
2023/07/29 08:01:47;;;;;;;1.00;0.80;;;;;;;42.66;29.94;98889.30;435339;1253;139332;-68
2023/07/29 08:11:53;;;;;;;2.10;1.20;;;;;;;38.73;31.86;98885.49;434936;1256;138430;-67
2023/07/29 08:21:59;;;;;;;1.80;1.60;;;;;;;36.60;34.37;98869.36;434712;1256;138632;-67
2023/07/29 08:32:06;;;;;;;4.60;1.60;;;;;;;35.34;35.45;98862.35;434779;1256;138615;-69
2023/07/29 08:42:13;;;;;;;3.20;1.30;;;;;;;34.15;36.55;98860.91;435487;1256;139511;-67
2023/07/29 08:52:20;;;;;;;1.50;1.40;;;;;;;33.36;37.30;98856.84;435801;1256;138817;-68
2023/07/29 09:02:26;;;;;;;3.50;1.70;;;;;;;33.05;37.73;98854.48;435508;1256;138808;-67
2023/07/29 09:12:33;;;;;;;1.70;1.60;;;;;;;32.74;38.28;98853.24;435577;1256;138860;-68
2023/07/29 09:22:38;;;;;;;1.30;1.20;;;;;;;32.47;39.22;98851.44;436507;1254;140785;-68
2023/07/29 09:32:44;;;;;;;4.80;1.50;;;;;;;32.47;39.23;98846.23;434745;1253;138796;-67
2023/07/29 09:42:51;;;;;;;1.40;1.30;;;;;;;32.30;39.41;98839.47;435080;1253;139143;-67
2023/07/29 09:52:59;;;;;;;7.00;1.90;;;;;;;32.16;39.27;98827.57;435614;1256;138909;-67
2023/07/29 10:03:07;;;;;;;3.00;1.70;;;;;;;31.46;39.64;98821.35;435415;1254;140504;-67
2023/07/29 10:13:13;;;;;;;3.00;1.80;;;;;;;31.46;40.27;98815.29;436796;1253;140176;-67
2023/07/29 10:23:18;;;;;;;;;;;;;;;31.36;40.12;98816.05;435208;1255;138810;-67
2023/07/29 10:33:24;;;;;;;1.90;1.50;;;;;;;30.92;40.48;98813.90;434905;1256;126985;-67
2023/07/29 10:43:35;;;;;;;1.70;1.50;;;;;;;30.27;40.93;98806.47;435187;1254;139201;-67
2023/07/29 10:53:41;;;;;;;1.60;1.50;;;;;;;29.68;41.58;98804.38;435893;1253;138929;-68
2023/07/29 11:04:19;;;;;;;1.80;1.20;;;;;;;29.59;41.71;98798.39;435169;1254;139008;-67
2023/07/29 11:14:26;;;;;;;2.10;1.20;;;;;;;29.43;42.18;98787.55;434975;1256;139219;-68
2023/07/29 11:24:31;;;;;;;;;;;;;;;29.34;42.26;98777.91;435088;1256;139510;-67
2023/07/29 11:34:36;;;;;;;3.40;1.70;;;;;;;29.45;42.51;98760.05;435001;1255;126692;-67
2023/07/29 11:44:43;;;;;;;1.80;1.70;;;;;;;29.62;41.91;98749.98;434860;1256;139682;-67
2023/07/29 11:54:52;;;;;;;2.00;1.80;;;;;;;29.72;41.24;98749.50;435126;1254;139199;-67
2023/07/29 12:04:59;;;;;;;1.20;1.10;;;;;;;29.58;41.30;98738.39;435296;1256;138346;-66
2023/07/29 12:15:07;;;;;;;1.20;1.10;;;;;;;29.59;41.60;98729.32;435115;1254;140101;-67
2023/07/29 12:25:13;;;;;;;1.60;1.50;;;;;;;29.60;41.31;98714.63;436074;1257;139399;-67
2023/07/29 12:35:19;;;;;;;2.20;1.60;;;;;;;29.36;41.31;98702.04;434849;1254;138678;-67
2023/07/29 12:45:26;;;;;;;1.70;1.60;;;;;;;29.23;41.59;98693.59;434901;1256;139436;-68
2023/07/29 12:55:32;;;;;;;1.50;1.40;;;;;;;29.21;41.49;98687.88;435180;1256;139719;-68
2023/07/29 13:05:38;;;;;;;1.50;1.40;;;;;;;28.81;41.65;98682.98;435420;1256;138557;-67
2023/07/29 13:15:44;;;;;;;2.30;1.50;;;;;;;28.77;41.66;98674.36;435069;1254;139896;-67
2023/07/29 13:25:50;;;;;;;2.60;1.60;;;;;;;28.81;41.91;98672.81;434798;1259;138924;-68
2023/07/29 13:35:56;;;;;;;2.10;1.70;;;;;;;28.82;41.61;98649.02;434961;1256;139401;-68
2023/07/29 13:46:02;;;;;;;1.80;1.20;;;;;;;28.64;41.40;98631.65;434792;1258;139332;-67
2023/07/29 13:56:08;;;;;;;2.10;1.90;;;;;;;28.34;41.56;98636.42;434936;1257;138945;-67
2023/07/29 14:06:14;;;;;;;1.60;1.50;;;;;;;28.32;41.96;98630.23;434927;1256;138857;-67
2023/07/29 14:16:22;;;;;;;1.40;1.40;;;;;;;28.14;42.03;98619.42;434730;1257;139226;-67
2023/07/29 14:26:29;;;;;;;4.50;2.00;;;;;;;28.06;42.15;98609.80;435667;1256;140015;-66
2023/07/29 14:36:37;;;;;;;1.20;1.10;;;;;;;28.22;41.92;98600.65;435163;1256;138468;-67
2023/07/29 14:46:43;;;;;;;1.60;1.50;;;;;;;28.41;41.37;98576.89;434853;1258;138670;-67
2023/07/29 14:56:49;;;;;;;2.50;1.70;;;;;;;28.51;41.27;98574.45;435347;1257;140078;-67
2023/07/29 15:06:54;;;;;;;2.10;1.80;;;;;;;28.39;41.74;98568.92;434852;1257;139168;-69
2023/07/29 15:17:00;;;;;;;3.30;2.00;;;;;;;27.96;42.11;98558.61;435000;1254;140714;-69
2023/07/29 15:27:07;;;;;;;4.30;1.80;;;;;;;27.79;42.40;98560.14;437051;1256;139420;-68
2023/07/29 15:37:13;;;;;;;2.20;2.00;;;;;;;27.62;42.61;98559.45;436053;1255;139037;-67
2023/07/29 15:47:20;;;;;;;2.20;2.00;;;;;;;27.34;43.28;98556.20;435128;1256;138447;-67
2023/07/29 15:57:26;;;;;;;3.30;2.30;;;;;;;27.31;43.76;98560.05;435407;1256;140214;-67
2023/07/29 16:07:32;;;;;;;2.00;1.70;;;;;;;27.16;44.01;98557.15;435100;1254;139077;-68
2023/07/29 16:17:38;;;;;;;1.60;1.50;;;;;;;26.98;44.36;98545.83;435207;1254;139266;-69
2023/07/29 16:27:43;;;;;;;2.20;1.90;;;;;;;26.97;44.61;98527.05;434875;1256;138868;-68
2023/07/29 16:37:50;;;;;;;3.00;2.70;;;;;;;26.65;45.12;98519.77;434848;1257;139673;-69
2023/07/29 16:47:56;;;;;;;2.70;2.50;;;;;;;26.36;46.17;98515.90;435529;1257;138669;-69
2023/07/29 16:58:02;;;;;;;3.70;3.40;;;;;;;26.16;46.56;98511.52;435261;1255;140886;-65
2023/07/29 17:08:08;;;;;;;3.70;2.40;;;;;;;26.16;47.08;98495.16;435194;1254;139534;-66
2023/07/29 17:18:14;;;;;;;4.70;2.80;;;;;;;26.13;47.43;98481.92;435067;1257;138777;-65
2023/07/29 17:28:19;;;;;;;6.30;3.70;;;;;;;25.83;48.04;98484.10;435396;1254;138690;-65
2023/07/29 17:38:25;;;;;;;9.10;3.90;;;;;;;25.44;49.12;98480.84;435202;1254;138935;-65
2023/07/29 17:48:31;;;;;;;3.40;3.10;;;;;;;25.06;50.01;98470.04;435310;1257;138301;-64
2023/07/29 17:58:37;;;;;;;3.50;3.00;;;;;;;24.74;50.72;98472.36;435174;1257;138482;-65
2023/07/29 18:08:43;;;;;;;6.90;2.80;;;;;;;24.42;51.72;98485.86;434490;1257;139261;-64
2023/07/29 18:18:49;;;;;;;5.30;1.50;;;;;;;24.04;52.02;98509.52;434499;1253;139123;-63
2023/07/29 18:28:56;;;;;;;3.90;1.30;;;;;;;23.62;52.53;98506.60;435057;1257;139518;-65
2023/07/29 18:39:05;;;;;;;1.40;1.20;;;;;;;23.29;53.09;98508.09;435456;1256;138518;-63
2023/07/29 18:49:11;;;;;;;2.30;1.40;;;;;;;22.97;54.42;98503.48;435776;1255;140857;-64
2023/07/29 18:59:20;;;;;;;4.90;1.70;;;;;;;22.71;55.47;98502.77;435424;1254;138712;-62
2023/07/29 19:09:26;;;;;;;3.10;2.10;;;;;;;22.49;56.56;98504.48;435447;1256;141045;-65
2023/07/29 19:19:32;;;;;;;4.90;2.00;;;;;;;22.26;58.11;98521.44;435366;1255;139606;-67
2023/07/29 19:29:38;;;;;;;3.00;1.50;;;;;;;22.04;59.31;98566.73;435564;1254;139439;-67
2023/07/29 19:39:44;;;;;;;9.50;2.50;;;;;;;21.85;61.82;98617.41;435273;1256;371304;-66
2023/07/29 19:49:50;;;;;;;3.10;1.50;;;;;;;20.86;76.22;98630.25;435179;1256;140253;-67
2023/07/29 19:59:56;;;;;;;5.70;1.60;;;;;;;20.05;77.75;98653.39;435299;1254;140796;-67
2023/07/29 20:10:06;;;;;;;3.70;1.90;;;;;;;19.66;76.46;98685.81;435533;1256;140240;-67
2023/07/29 20:20:13;;;;;;;5.30;1.40;;;;;;;19.44;76.58;98690.61;435136;1256;139034;-68
2023/07/29 20:30:19;;;;;;;1.20;1.10;;;;;;;19.13;76.96;98675.69;435846;1253;139729;-67
2023/07/29 20:40:25;;;;;;;4.40;1.70;;;;;;;18.92;77.79;98692.98;434890;1256;140347;-66
2023/07/29 20:50:31;;;;;;;3.70;1.60;;;;;;;18.74;79.26;98677.55;434763;1256;139686;-66
2023/07/29 21:00:37;;;;;;;2.30;1.10;;;;;;;18.55;80.39;98632.78;435907;1253;139019;-66
2023/07/29 21:10:43;;;;;;;2.70;1.90;;;;;;;18.33;81.99;98625.63;434802;1253;142730;-66
2023/07/29 21:20:50;;;;;;;3.50;3.20;;;;;;;18.35;83.82;98654.29;434690;1256;140039;-67
2023/07/29 21:30:57;;;;;;;3.10;1.60;;;;;;;18.40;84.97;98643.64;435380;1256;140094;-66
2023/07/29 21:41:05;;;;;;;1.90;1.40;;;;;;;18.43;85.74;98640.48;435289;1254;139177;-66
2023/07/29 21:51:11;;;;;;;3.30;1.70;;;;;;;18.38;85.69;98635.55;435324;1253;139578;-66
2023/07/29 22:01:17;;;;;;;3.70;2.20;;;;;;;18.22;86.38;98629.16;435379;1254;140089;-66
2023/07/29 22:11:24;;;;;;;3.10;1.90;;;;;;;18.02;86.87;98625.73;435459;1254;139823;-70
2023/07/29 22:21:33;;;;;;;2.70;1.90;;;;;;;17.78;88.44;98624.36;435670;1256;140720;-69
2023/07/29 22:31:40;;;;;;;4.40;2.70;;;;;;;17.56;89.91;98619.35;438459;1254;139209;-66
2023/07/29 22:41:46;;;;;;;2.60;2.30;;;;;;;17.40;90.83;98598.58;435544;1253;140970;-66
2023/07/29 22:51:52;;;;;;;2.10;1.80;;;;;;;17.20;91.66;98598.02;435437;1256;139785;-66
2023/07/29 23:01:58;;;;;;;2.50;2.00;;;;;;;17.02;92.25;98620.50;434960;1256;141049;-66
2023/07/29 23:12:05;;;;;;;2.40;2.00;;;;;;;16.80;92.89;98628.79;436656;1256;139075;-67
2023/07/29 23:22:11;;;;;;;3.60;3.30;;;;;;;16.67;93.21;98631.54;436678;1254;139004;-62
2023/07/29 23:32:17;;;;;;;4.20;3.80;;;;;;;16.52;93.97;98627.29;435587;1253;140317;-64
2023/07/29 23:42:24;;;;;;;4.80;3.60;;;;;;;16.51;95.06;98636.00;435766;1253;138964;-63
2023/07/29 23:52:30;;;;;;;3.90;3.60;;;;;;;16.56;96.02;98646.98;435945;1253;139469;-64
